Time;durP1;ratioP1;P1;durP2;ratioP2;P2;SDS_P1;SDS_P2;PMS_P1;PMS_P2;Temp;Humidity;BMP_temperature;BMP_pressure;BME280_temperature;BME280_humidity;BME280_pressure;Samples;Min_cycle;Max_cycle;Signal;HPM_P1;HPM_P2
2023/05/17 00:01:29;;;;;;;8.52;3.40;;;;;;;9.92;100.00;102376.25;5274693;28;20040;-69
2023/05/17 00:04:00;;;;;;;8.85;3.00;;;;;;;9.97;100.00;102397.78;5296600;28;20096;-69
2023/05/17 00:06:33;;;;;;;10.63;3.00;;;;;;;9.99;100.00;102391.50;5278296;28;20031;-68
2023/05/17 00:09:04;;;;;;;9.55;3.25;;;;;;;9.93;100.00;102389.25;5295333;28;20416;-69
2023/05/17 00:11:36;;;;;;;9.48;3.00;;;;;;;9.91;100.00;102387.66;5292599;28;20035;-68
2023/05/17 00:14:07;;;;;;;6.53;2.58;;;;;;;9.82;100.00;102393.44;5297783;28;20024;-68
2023/05/17 00:16:38;;;;;;;7.75;2.70;;;;;;;9.76;100.00;102394.59;5298905;28;20023;-68
2023/05/17 00:19:09;;;;;;;12.07;3.13;;;;;;;9.81;100.00;102397.81;5295522;28;20113;-69
2023/05/17 00:21:41;;;;;;;9.57;2.90;;;;;;;9.82;100.00;102393.44;5295865;28;20452;-68
2023/05/17 00:24:12;;;;;;;8.55;3.03;;;;;;;9.81;100.00;102400.44;5295532;28;20032;-68
2023/05/17 00:26:43;;;;;;;8.90;3.35;;;;;;;9.71;100.00;102383.56;5295811;28;20036;-69
2023/05/17 00:29:14;;;;;;;11.00;3.10;;;;;;;9.71;100.00;102388.78;5294547;28;20027;-68
2023/05/17 00:31:46;;;;;;;6.95;2.75;;;;;;;9.71;100.00;102396.66;5279639;28;20099;-68
2023/05/17 00:34:17;;;;;;;8.05;2.90;;;;;;;9.60;100.00;102385.94;5296759;28;20566;-69
2023/05/17 00:36:49;;;;;;;12.65;3.92;;;;;;;9.62;100.00;102384.06;5294030;28;20596;-68
2023/05/17 00:39:20;;;;;;;8.45;3.17;;;;;;;9.68;100.00;102388.97;5294935;28;20135;-68
2023/05/17 00:41:51;;;;;;;11.25;3.78;;;;;;;9.65;100.00;102389.13;5297954;28;20034;-69
2023/05/17 00:44:22;;;;;;;11.13;3.10;;;;;;;9.67;100.00;102385.50;5294071;28;20086;-69
2023/05/17 00:46:54;;;;;;;7.85;2.97;;;;;;;9.61;100.00;102387.63;5292380;28;20024;-69
2023/05/17 00:49:25;;;;;;;9.27;3.35;;;;;;;9.60;100.00;102381.53;5297461;28;20008;-69
2023/05/17 00:51:58;;;;;;;7.15;2.85;;;;;;;9.54;100.00;102387.09;5295459;28;20130;-69
2023/05/17 00:54:30;;;;;;;9.73;2.70;;;;;;;9.53;100.00;102385.44;5293645;28;20124;-68
2023/05/17 00:57:03;;;;;;;13.10;3.40;;;;;;;9.50;100.00;102391.66;5294487;28;20106;-68
2023/05/17 00:59:36;;;;;;;11.35;2.97;;;;;;;9.48;100.00;102393.53;5297554;28;20029;-69
2023/05/17 01:02:08;;;;;;;10.88;3.30;;;;;;;9.55;100.00;102383.59;5277213;28;20024;-68
2023/05/17 01:04:40;;;;;;;10.02;3.22;;;;;;;9.53;100.00;102393.28;5296884;28;20720;-68
2023/05/17 01:07:11;;;;;;;8.98;2.92;;;;;;;9.50;100.00;102377.75;5291610;28;20106;-68
2023/05/17 01:09:43;;;;;;;12.18;3.40;;;;;;;9.48;100.00;102390.09;5293777;28;20103;-68
2023/05/17 01:12:31;;;;;;;11.45;3.08;;;;;;;9.48;100.00;102390.09;5295788;28;20032;-69
2023/05/17 01:15:20;;;;;;;12.52;3.40;;;;;;;9.75;100.00;102391.16;5292136;28;20036;-68
2023/05/17 01:18:00;;;;;;;9.20;3.20;;;;;;;9.61;100.00;102385.84;5292284;28;20040;-68
2023/05/17 01:20:42;;;;;;;12.02;3.42;;;;;;;9.59;100.00;102381.66;5295223;28;20030;-68
2023/05/17 01:23:13;;;;;;;12.10;4.18;;;;;;;9.44;100.00;102378.94;5293816;28;20036;-69
2023/05/17 01:26:00;;;;;;;8.97;3.60;;;;;;;9.58;100.00;102370.31;5293188;28;20420;-69
2023/05/17 01:28:32;;;;;;;10.07;3.60;;;;;;;9.47;100.00;102383.13;5295998;28;20024;-69
2023/05/17 01:31:06;;;;;;;13.18;3.88;;;;;;;9.45;100.00;102387.63;5294865;28;20016;-69
2023/05/17 01:33:38;;;;;;;7.63;2.70;;;;;;;9.35;100.00;102395.13;5295061;28;20039;-68
2023/05/17 01:36:09;;;;;;;10.40;2.90;;;;;;;9.30;100.00;102384.09;5292936;28;20044;-68
2023/05/17 01:38:40;;;;;;;13.50;3.45;;;;;;;9.41;100.00;102388.72;5277930;28;20040;-68
2023/05/17 01:41:18;;;;;;;11.23;3.88;;;;;;;9.44;100.00;102392.03;5293059;28;20024;-70
2023/05/17 01:44:17;;;;;;;9.70;3.20;;;;;;;9.66;100.00;102382.97;5273593;28;20477;-68
2023/05/17 01:46:52;;;;;;;13.95;4.05;;;;;;;9.33;100.00;102386.53;5289650;28;20030;-69
2023/05/17 01:49:29;;;;;;;10.27;3.17;;;;;;;9.40;100.00;102385.28;5290851;28;20030;-69
2023/05/17 01:52:23;;;;;;;10.15;3.97;;;;;;;9.62;100.00;102384.06;5293268;28;20425;-68
2023/05/17 01:55:07;;;;;;;13.95;4.03;;;;;;;9.50;100.00;102388.22;5277114;28;20489;-68
2023/05/17 01:57:42;;;;;;;10.13;4.10;;;;;;;9.24;100.00;102366.97;5293980;28;20443;-68
2023/05/17 02:00:14;;;;;;;10.68;3.60;;;;;;;9.24;100.00;102374.81;5276622;28;20024;-69
2023/05/17 02:02:45;;;;;;;10.35;3.67;;;;;;;9.34;100.00;102382.16;5293771;28;20036;-68
2023/05/17 02:05:17;;;;;;;16.85;4.45;;;;;;;9.21;100.00;102374.97;5291369;28;20078;-69
2023/05/17 02:07:48;;;;;;;10.15;3.60;;;;;;;9.24;100.00;102381.78;5294678;28;20028;-68
2023/05/17 02:10:19;;;;;;;11.60;3.67;;;;;;;9.23;100.00;102395.81;5291740;28;20016;-68
2023/05/17 02:12:50;;;;;;;11.50;3.95;;;;;;;9.20;100.00;102388.97;5295066;28;20032;-68
2023/05/17 02:15:22;;;;;;;11.77;3.42;;;;;;;9.17;100.00;102391.78;5274510;28;20034;-68
2023/05/17 02:17:53;;;;;;;10.38;3.42;;;;;;;9.21;100.00;102387.22;5295017;28;20027;-69
2023/05/17 02:20:24;;;;;;;8.45;3.63;;;;;;;9.15;100.00;102385.75;5276402;28;20024;-68
2023/05/17 02:22:56;;;;;;;10.30;3.60;;;;;;;9.15;100.00;102390.16;5293457;28;20032;-68
2023/05/17 02:25:27;;;;;;;8.52;3.47;;;;;;;9.17;100.00;102390.94;5293183;28;20036;-68
2023/05/17 02:27:58;;;;;;;9.60;3.75;;;;;;;9.16;100.00;102384.81;5293955;28;20028;-68
2023/05/17 02:30:30;;;;;;;11.05;3.88;;;;;;;9.18;100.00;102387.38;5294489;28;20023;-68
2023/05/17 02:33:01;;;;;;;10.88;4.57;;;;;;;9.13;100.00;102377.19;5294286;28;20069;-68
2023/05/17 02:35:32;;;;;;;11.00;4.13;;;;;;;9.12;100.00;102377.25;5291808;28;20165;-68
2023/05/17 02:38:04;;;;;;;11.75;4.03;;;;;;;9.16;100.00;102386.59;5294271;28;20067;-68
2023/05/17 02:40:35;;;;;;;13.70;4.50;;;;;;;9.20;100.00;102388.13;5292430;28;20452;-68
2023/05/17 02:43:06;;;;;;;12.93;4.63;;;;;;;9.26;100.00;102395.66;5276136;28;20035;-70
2023/05/17 02:45:37;;;;;;;12.15;4.45;;;;;;;9.14;100.00;102396.31;5290523;28;20106;-69
2023/05/17 02:48:09;;;;;;;15.13;4.47;;;;;;;9.18;100.00;102403.06;5296269;28;20103;-69
2023/05/17 02:50:40;;;;;;;11.43;3.92;;;;;;;9.21;100.00;102403.75;5294075;28;20031;-69
2023/05/17 02:53:11;;;;;;;14.70;5.18;;;;;;;9.25;100.00;102402.66;5275363;28;20077;-69
2023/05/17 02:55:42;;;;;;;13.07;4.60;;;;;;;9.34;100.00;102409.16;5294546;28;20035;-68
2023/05/17 02:58:14;;;;;;;10.38;4.38;;;;;;;9.30;100.00;102399.78;5299247;28;20020;-68
2023/05/17 03:00:45;;;;;;;13.82;4.72;;;;;;;9.42;100.00;102416.56;5297203;28;20040;-68
2023/05/17 03:03:17;;;;;;;13.73;4.47;;;;;;;9.42;100.00;102409.56;5299189;28;20062;-67
2023/05/17 03:05:48;;;;;;;10.30;4.30;;;;;;;9.49;100.00;102408.31;5297152;28;20496;-69
2023/05/17 03:08:19;;;;;;;10.27;3.80;;;;;;;9.57;100.00;102420.13;5296413;28;20094;-68
2023/05/17 03:10:51;;;;;;;11.98;4.40;;;;;;;9.61;100.00;102427.72;5297096;28;20405;-69
2023/05/17 03:13:22;;;;;;;12.40;5.07;;;;;;;9.61;100.00;102408.56;5297934;28;20103;-69
2023/05/17 03:15:53;;;;;;;11.07;4.25;;;;;;;9.67;100.00;102422.16;5299130;28;20028;-68
2023/05/17 03:18:25;;;;;;;14.32;4.57;;;;;;;9.70;100.00;102421.13;5296924;28;20474;-69
2023/05/17 03:20:56;;;;;;;13.52;4.20;;;;;;;9.74;100.00;102423.50;5298065;28;20031;-68
2023/05/17 03:23:27;;;;;;;19.10;5.32;;;;;;;9.73;100.00;102427.00;5296613;28;20059;-69
2023/05/17 03:25:58;;;;;;;12.20;4.65;;;;;;;9.76;100.00;102428.63;5297933;28;20477;-68
2023/05/17 03:28:30;;;;;;;15.68;5.80;;;;;;;9.81;100.00;102430.97;5297419;28;20020;-69
2023/05/17 03:31:01;;;;;;;16.45;5.18;;;;;;;9.83;100.00;102427.34;5297816;28;20114;-68
2023/05/17 03:33:32;;;;;;;15.05;5.70;;;;;;;9.83;100.00;102437.81;5279775;28;20044;-69
2023/05/17 03:36:04;;;;;;;14.30;5.45;;;;;;;9.78;100.00;102423.31;5293929;28;20114;-69
2023/05/17 03:38:35;;;;;;;13.57;4.95;;;;;;;9.88;100.00;102433.16;5297963;28;20028;-68
2023/05/17 03:41:07;;;;;;;11.18;4.88;;;;;;;9.91;100.00;102437.41;5298180;28;20026;-69
2023/05/17 03:43:38;;;;;;;12.18;5.10;;;;;;;9.94;100.00;102440.69;5294423;28;20035;-68
2023/05/17 03:46:10;;;;;;;11.00;4.85;;;;;;;9.98;100.00;102438.75;5298741;28;20389;-68
2023/05/17 03:48:41;;;;;;;10.55;5.25;;;;;;;9.97;100.00;102434.44;5296824;28;20565;-68
2023/05/17 03:51:13;;;;;;;12.48;5.50;;;;;;;9.96;100.00;102443.22;5298539;28;20107;-69
2023/05/17 03:53:44;;;;;;;16.58;5.55;;;;;;;9.98;100.00;102439.56;5276218;28;20024;-68
2023/05/17 03:56:16;;;;;;;11.55;5.20;;;;;;;9.99;100.00;102438.63;5296634;28;20127;-69
2023/05/17 03:58:48;;;;;;;12.93;5.55;;;;;;;10.01;100.00;102451.66;5295587;28;21104;-68
2023/05/17 04:01:19;;;;;;;13.55;5.25;;;;;;;10.02;100.00;102455.13;5297013;28;20128;-69
2023/05/17 04:03:50;;;;;;;12.02;5.10;;;;;;;10.03;100.00;102454.19;5293469;28;20039;-68
2023/05/17 04:06:22;;;;;;;16.15;5.95;;;;;;;9.99;100.00;102453.50;5294803;28;20081;-69
2023/05/17 04:08:54;;;;;;;11.40;5.72;;;;;;;10.05;100.00;102457.56;5294492;28;20016;-68
2023/05/17 04:11:26;;;;;;;12.20;5.45;;;;;;;10.03;100.00;102448.94;5296312;28;20085;-69
2023/05/17 04:13:57;;;;;;;16.10;6.47;;;;;;;10.06;100.00;102454.84;5293513;28;20036;-68
2023/05/17 04:16:28;;;;;;;11.55;5.82;;;;;;;9.97;100.00;102452.78;5294733;28;20054;-69
2023/05/17 04:19:00;;;;;;;13.23;5.55;;;;;;;10.06;100.00;102451.41;5297114;28;20112;-69
2023/05/17 04:21:31;;;;;;;12.57;6.68;;;;;;;10.06;100.00;102460.09;5279969;28;20042;-69
2023/05/17 04:24:03;;;;;;;12.95;6.13;;;;;;;10.01;100.00;102450.81;5293060;28;20043;-69
2023/05/17 04:26:34;;;;;;;14.43;7.13;;;;;;;10.01;100.00;102466.53;5278811;28;20119;-69
2023/05/17 04:29:05;;;;;;;16.17;6.53;;;;;;;10.06;100.00;102461.88;5296093;28;20287;-69
2023/05/17 04:31:37;;;;;;;16.40;6.15;;;;;;;10.07;100.00;102464.38;5280797;28;20089;-68
2023/05/17 04:34:08;;;;;;;15.40;6.55;;;;;;;10.08;100.00;102478.34;5282452;28;20025;-69
2023/05/17 04:36:39;;;;;;;10.45;6.00;;;;;;;10.07;100.00;102468.78;5295757;28;20032;-68
2023/05/17 04:39:10;;;;;;;15.48;6.22;;;;;;;10.09;100.00;102486.09;5279603;28;20044;-68
2023/05/17 04:41:42;;;;;;;15.18;6.70;;;;;;;10.11;100.00;102489.47;5293114;28;20120;-69
2023/05/17 04:44:13;;;;;;;14.02;6.97;;;;;;;10.08;100.00;102486.22;5295601;28;20107;-69
2023/05/17 04:46:44;;;;;;;17.27;6.90;;;;;;;10.13;100.00;102492.03;5291440;28;20489;-68
2023/05/17 04:49:16;;;;;;;15.55;6.30;;;;;;;10.11;100.00;102484.22;5296335;28;20020;-69
2023/05/17 04:51:47;;;;;;;16.45;7.40;;;;;;;10.15;100.00;102490.13;5296798;28;20424;-69
2023/05/17 04:54:18;;;;;;;13.52;6.47;;;;;;;10.19;100.00;102495.16;5295514;28;20767;-69
2023/05/17 04:56:49;;;;;;;16.35;7.18;;;;;;;10.20;100.00;102495.97;5292702;28;20040;-69
2023/05/17 04:59:21;;;;;;;21.23;7.45;;;;;;;10.27;100.00;102499.97;5293340;28;20032;-69
2023/05/17 05:01:52;;;;;;;18.15;7.05;;;;;;;10.29;100.00;102502.50;5295831;28;20024;-68
2023/05/17 05:04:24;;;;;;;19.67;7.57;;;;;;;10.31;100.00;102506.72;5279151;28;20094;-68
2023/05/17 05:06:55;;;;;;;20.55;7.57;;;;;;;10.34;100.00;102509.19;5295903;28;20028;-68
2023/05/17 05:09:26;;;;;;;18.67;7.68;;;;;;;10.42;100.00;102511.34;5293549;28;20031;-69
2023/05/17 05:11:58;;;;;;;14.20;7.03;;;;;;;10.45;100.00;102512.03;5293370;28;20499;-68
2023/05/17 05:14:29;;;;;;;14.77;7.15;;;;;;;10.47;100.00;102511.94;5294013;28;20020;-69
2023/05/17 05:17:00;;;;;;;16.25;7.40;;;;;;;10.51;100.00;102518.69;5296021;28;20027;-69
2023/05/17 05:19:31;;;;;;;16.70;7.60;;;;;;;10.58;100.00;102519.16;5294014;28;20069;-68
2023/05/17 05:22:03;;;;;;;19.30;7.22;;;;;;;10.64;100.00;102518.78;5278584;28;20390;-69
2023/05/17 05:24:34;;;;;;;15.40;6.30;;;;;;;10.65;100.00;102523.13;5277380;28;20528;-68
2023/05/17 05:27:06;;;;;;;14.38;6.50;;;;;;;10.69;100.00;102524.63;5293400;28;20020;-68
2023/05/17 05:29:37;;;;;;;16.23;6.63;;;;;;;10.77;100.00;102534.66;5295527;28;20024;-68
2023/05/17 05:32:08;;;;;;;14.00;6.65;;;;;;;10.82;100.00;102537.84;5296153;28;20020;-68
2023/05/17 05:34:39;;;;;;;15.38;5.53;;;;;;;10.88;100.00;102535.72;5294976;28;20075;-68
2023/05/17 05:37:11;;;;;;;20.63;6.82;;;;;;;10.95;100.00;102538.84;5292135;28;20020;-68
2023/05/17 05:39:42;;;;;;;16.15;6.57;;;;;;;10.97;100.00;102534.31;5295948;28;20032;-69
2023/05/17 05:42:13;;;;;;;13.68;5.97;;;;;;;11.06;100.00;102546.91;5294907;28;20032;-69
2023/05/17 05:44:45;;;;;;;17.75;6.57;;;;;;;11.11;100.00;102541.38;5291524;28;20051;-69
2023/05/17 05:47:16;;;;;;;14.90;5.85;;;;;;;11.12;100.00;102537.81;5295211;28;20561;-69
2023/05/17 05:49:47;;;;;;;15.73;5.93;;;;;;;11.29;100.00;102549.91;5292999;28;20086;-69
2023/05/17 05:52:18;;;;;;;16.88;6.75;;;;;;;11.34;100.00;102548.69;5291499;28;20078;-69
2023/05/17 05:54:50;;;;;;;13.38;6.38;;;;;;;11.33;100.00;102541.78;5292302;28;20378;-69
2023/05/17 05:57:21;;;;;;;14.35;6.65;;;;;;;11.44;100.00;102549.00;5295113;28;20412;-69
2023/05/17 05:59:52;;;;;;;14.68;6.07;;;;;;;11.55;100.00;102561.44;5294203;28;20036;-69
2023/05/17 06:02:23;;;;;;;14.48;5.63;;;;;;;11.58;100.00;102563.88;5291027;28;20024;-69
2023/05/17 06:04:55;;;;;;;13.80;5.57;;;;;;;11.65;100.00;102567.81;5292078;28;20056;-68
2023/05/17 06:07:26;;;;;;;17.65;5.82;;;;;;;11.71;100.00;102575.31;5294923;28;20032;-69
2023/05/17 06:09:57;;;;;;;20.25;5.93;;;;;;;11.75;100.00;102575.97;5292592;28;20074;-69
2023/05/17 06:12:29;;;;;;;15.02;5.50;;;;;;;11.81;100.00;102581.66;5276300;28;20034;-69
2023/05/17 06:15:00;;;;;;;13.93;6.25;;;;;;;11.96;100.00;102582.53;5295331;28;20028;-69
2023/05/17 06:17:31;;;;;;;15.55;5.05;;;;;;;11.98;100.00;102587.72;5277314;28;20044;-68
2023/05/17 06:20:03;;;;;;;20.20;5.57;;;;;;;12.01;100.00;102588.34;5291373;28;20024;-69
2023/05/17 06:22:35;;;;;;;11.40;4.27;;;;;;;12.10;100.00;102574.63;5290711;28;20401;-69
2023/05/17 06:25:06;;;;;;;15.52;5.03;;;;;;;12.26;100.00;102597.28;5292188;28;20100;-70
2023/05/17 06:27:38;;;;;;;12.48;4.38;;;;;;;12.29;100.00;102594.47;5289587;28;20385;-68
2023/05/17 06:30:10;;;;;;;15.82;4.35;;;;;;;12.36;100.00;102593.97;5288873;28;20012;-69
2023/05/17 06:32:41;;;;;;;12.48;4.60;;;;;;;12.48;100.00;102602.03;5286593;28;20396;-69
2023/05/17 06:35:12;;;;;;;13.05;4.38;;;;;;;12.68;100.00;102603.34;5294258;28;20126;-70
2023/05/17 06:37:44;;;;;;;12.50;4.43;;;;;;;12.76;100.00;102598.41;5284259;28;20090;-69
2023/05/17 06:40:17;;;;;;;;;;;;;;;13.50;100.00;102589.91;5291913;28;20046;-69
2023/05/17 06:42:48;;;;;;;12.40;4.45;;;;;;;13.13;100.00;102591.53;5288561;28;20266;-69
2023/05/17 06:45:20;;;;;;;11.90;4.05;;;;;;;13.31;100.00;102605.28;5269844;28;20028;-70
2023/05/17 06:47:52;;;;;;;12.57;4.60;;;;;;;13.35;100.00;102607.59;5291594;28;20032;-69
2023/05/17 06:50:25;;;;;;;13.13;3.90;;;;;;;13.52;100.00;102597.69;5291855;28;20051;-70
2023/05/17 06:52:57;;;;;;;10.50;3.17;;;;;;;13.67;100.00;102604.50;5287844;28;20109;-69
2023/05/17 06:55:28;;;;;;;13.45;3.85;;;;;;;13.65;100.00;102598.53;5287846;28;20071;-69
2023/05/17 06:57:59;;;;;;;12.75;2.83;;;;;;;13.68;97.21;102602.75;5292260;28;20529;-70
2023/05/17 07:00:30;;;;;;;9.57;3.15;;;;;;;13.63;91.32;102603.88;5292301;28;20094;-70
2023/05/17 07:03:02;;;;;;;11.25;2.70;;;;;;;13.52;86.26;102616.09;5291574;28;20105;-69
2023/05/17 07:05:33;;;;;;;11.02;3.03;;;;;;;13.62;82.87;102606.63;5289174;28;20028;-69
2023/05/17 07:08:04;;;;;;;13.50;3.25;;;;;;;13.50;80.78;102618.84;5292403;28;20727;-70
2023/05/17 07:10:36;;;;;;;12.75;2.55;;;;;;;13.37;82.51;102610.97;5289081;28;20048;-70
2023/05/17 07:13:07;;;;;;;15.95;3.13;;;;;;;13.46;84.58;102612.13;5291552;28;20440;-69
2023/05/17 07:15:38;;;;;;;9.77;1.90;;;;;;;13.46;78.40;102619.19;5293272;28;20046;-70
2023/05/17 07:18:10;;;;;;;15.68;3.22;;;;;;;13.61;79.83;102620.75;5294908;28;20032;-69
2023/05/17 07:20:41;;;;;;;14.32;2.60;;;;;;;13.64;77.38;102615.28;5290391;28;20452;-70
2023/05/17 07:23:12;;;;;;;14.32;3.63;;;;;;;13.82;76.50;102623.66;5290202;28;20052;-69
2023/05/17 07:25:45;;;;;;;12.77;3.20;;;;;;;13.92;76.21;102623.88;5294872;28;20035;-70
2023/05/17 07:28:16;;;;;;;8.55;2.20;;;;;;;14.12;77.78;102632.03;5292969;28;20020;-70
2023/05/17 07:30:47;;;;;;;11.85;2.88;;;;;;;14.06;69.68;102634.28;5293586;28;20028;-69
2023/05/17 07:33:18;;;;;;;8.48;2.25;;;;;;;14.23;73.25;102633.06;5292364;28;20172;-68
2023/05/17 07:35:50;;;;;;;10.80;2.30;;;;;;;14.20;73.47;102634.13;5290271;28;20039;-69
2023/05/17 07:38:21;;;;;;;11.68;2.78;;;;;;;14.34;72.85;102636.63;5284850;28;20674;-68
2023/05/17 07:40:52;;;;;;;9.95;2.55;;;;;;;14.28;71.43;102641.47;5273547;28;20033;-69
2023/05/17 07:43:23;;;;;;;12.60;2.63;;;;;;;14.32;67.66;102627.16;5276973;28;20142;-68
2023/05/17 07:45:55;;;;;;;8.95;2.28;;;;;;;14.43;67.45;102634.25;5273017;28;20032;-68
2023/05/17 07:48:26;;;;;;;8.75;2.50;;;;;;;14.64;67.85;102637.16;5277519;28;20036;-69
2023/05/17 07:50:57;;;;;;;10.95;2.47;;;;;;;14.77;66.45;102638.81;5276840;28;20549;-68
2023/05/17 07:53:29;;;;;;;10.65;2.70;;;;;;;14.89;65.22;102644.09;5269959;28;20025;-68
2023/05/17 07:56:00;;;;;;;9.68;2.75;;;;;;;15.08;65.12;102639.16;5276204;28;20025;-68
2023/05/17 07:58:31;;;;;;;13.07;2.40;;;;;;;15.31;62.63;102642.69;5275781;28;20061;-69
2023/05/17 08:01:03;;;;;;;8.38;2.33;;;;;;;15.48;64.10;102638.72;5275519;28;20063;-69
2023/05/17 08:03:35;;;;;;;10.23;2.63;;;;;;;15.77;66.53;102641.81;5273473;28;20032;-68
2023/05/17 08:06:06;;;;;;;9.90;2.53;;;;;;;15.90;63.73;102644.31;5276692;28;20081;-68
2023/05/17 08:08:37;;;;;;;11.32;2.88;;;;;;;15.92;62.34;102631.81;5274602;28;20028;-70
2023/05/17 08:11:10;;;;;;;12.32;3.17;;;;;;;16.28;69.83;102649.19;5271510;28;20504;-68
2023/05/17 08:13:42;;;;;;;12.32;2.60;;;;;;;16.13;66.91;102651.25;5275815;28;20557;-69
2023/05/17 08:16:13;;;;;;;10.38;2.97;;;;;;;16.10;65.91;102648.00;5276506;28;20029;-68
2023/05/17 08:18:45;;;;;;;12.57;3.22;;;;;;;15.84;65.33;102636.88;5277016;28;20543;-69
2023/05/17 08:21:16;;;;;;;11.35;2.90;;;;;;;15.78;67.24;102649.59;5256192;28;20036;-69
2023/05/17 08:23:47;;;;;;;11.23;2.97;;;;;;;15.67;67.05;102652.22;5257032;28;20545;-68
2023/05/17 08:26:19;;;;;;;9.32;2.42;;;;;;;15.81;69.80;102644.06;5275476;28;20474;-68
2023/05/17 08:28:50;;;;;;;10.85;3.17;;;;;;;15.89;65.22;102650.56;5266418;28;20028;-69
2023/05/17 08:31:21;;;;;;;11.00;2.45;;;;;;;15.87;63.25;102637.44;5273035;28;20131;-68
2023/05/17 08:33:53;;;;;;;12.07;2.63;;;;;;;16.07;62.61;102649.13;5276488;28;20032;-69
2023/05/17 08:36:24;;;;;;;8.48;2.70;;;;;;;16.24;60.12;102655.69;5276534;28;20537;-69
2023/05/17 08:38:56;;;;;;;7.50;2.35;;;;;;;16.47;57.92;102651.19;5283798;28;20131;-68
2023/05/17 08:41:27;;;;;;;9.57;2.30;;;;;;;16.53;52.22;102643.59;5296540;28;20047;-68
2023/05/17 08:43:59;;;;;;;9.20;2.63;;;;;;;16.70;48.55;102652.78;5297128;28;20393;-69
2023/05/17 08:46:32;;;;;;;8.27;1.67;;;;;;;16.74;45.18;102638.41;5276661;28;20043;-69
2023/05/17 08:49:05;;;;;;;9.20;1.92;;;;;;;16.97;49.16;102652.38;5295293;28;20028;-69
2023/05/17 08:51:38;;;;;;;8.75;2.15;;;;;;;16.87;46.64;102656.75;5296960;28;20115;-69
2023/05/17 08:54:10;;;;;;;11.43;2.65;;;;;;;16.85;45.12;102657.81;5297383;28;20028;-69
2023/05/17 08:56:42;;;;;;;7.67;1.90;;;;;;;16.93;49.48;102658.03;5291684;28;20089;-69
2023/05/17 08:59:13;;;;;;;9.80;2.35;;;;;;;17.15;49.98;102665.84;5295190;28;20497;-69
2023/05/17 09:01:48;;;;;;;6.70;2.40;;;;;;;17.28;46.08;102655.09;5296153;28;20020;-69
2023/05/17 09:04:20;;;;;;;8.48;2.10;;;;;;;17.43;45.72;102656.44;5293891;28;20044;-69
2023/05/17 09:06:51;;;;;;;10.45;2.20;;;;;;;17.52;48.22;102652.97;5291787;28;20084;-69
2023/05/17 09:09:23;;;;;;;8.02;2.30;;;;;;;17.66;46.29;102657.09;5293615;28;20059;-69
2023/05/17 09:11:54;;;;;;;10.07;2.38;;;;;;;17.81;46.95;102656.78;5288131;28;20027;-69
2023/05/17 09:14:33;;;;;;;9.82;2.65;;;;;;;17.89;45.99;102659.59;5294126;28;20028;-69
2023/05/17 09:17:04;;;;;;;9.32;2.35;;;;;;;17.60;45.00;102649.66;5296390;28;20439;-69
2023/05/17 09:19:42;;;;;;;7.78;2.13;;;;;;;17.92;45.40;102644.28;5290250;28;20040;-70
2023/05/17 09:22:17;;;;;;;7.88;1.90;;;;;;;17.99;44.60;102648.06;5294829;28;20023;-69
2023/05/17 09:24:48;;;;;;;7.03;1.90;;;;;;;17.96;42.98;102656.28;5294382;28;20085;-69
2023/05/17 09:27:20;;;;;;;7.35;2.28;;;;;;;17.93;42.81;102651.25;5293724;28;20032;-70
2023/05/17 09:29:53;;;;;;;8.02;2.00;;;;;;;18.06;42.74;102658.94;5289968;28;20093;-69
2023/05/17 09:32:25;;;;;;;;;;;;;;;18.87;43.93;102656.19;5295224;28;20038;-69
2023/05/17 09:34:58;;;;;;;9.27;2.28;;;;;;;18.02;42.50;102665.50;5276701;28;19915;-69
2023/05/17 09:37:30;;;;;;;8.85;2.05;;;;;;;17.55;40.08;102661.66;5292671;28;20107;-69
2023/05/17 09:40:01;;;;;;;5.90;1.73;;;;;;;17.86;40.51;102658.06;5291201;28;20471;-70
2023/05/17 09:42:38;;;;;;;7.45;1.98;;;;;;;18.01;41.27;102644.44;5293201;28;20059;-71
2023/05/17 09:45:09;;;;;;;6.70;2.00;;;;;;;18.33;41.58;102653.00;5293725;28;20024;-69
2023/05/17 09:47:40;;;;;;;7.35;1.65;;;;;;;18.14;41.02;102653.81;5290899;28;20051;-69
2023/05/17 09:50:17;;;;;;;7.13;1.77;;;;;;;18.23;47.19;102657.47;5284185;28;20047;-69
2023/05/17 09:52:48;;;;;;;6.90;1.67;;;;;;;18.13;43.13;102656.59;5289347;28;20039;-69
2023/05/17 09:55:26;;;;;;;6.57;2.20;;;;;;;18.27;43.00;102652.75;5293416;28;20020;-69
2023/05/17 09:58:02;;;;;;;8.05;1.98;;;;;;;18.34;38.90;102656.53;5294038;28;20452;-70
2023/05/17 10:00:34;;;;;;;7.25;1.92;;;;;;;18.19;39.47;102661.38;5281638;28;20554;-69
2023/05/17 10:03:06;;;;;;;6.93;1.80;;;;;;;18.36;39.23;102649.25;5273056;28;20038;-69
2023/05/17 10:05:42;;;;;;;5.22;1.63;;;;;;;18.64;39.19;102651.13;5276367;28;20119;-70
2023/05/17 10:08:14;;;;;;;7.57;2.28;;;;;;;18.63;41.48;102641.44;5275778;28;20040;-69
2023/05/17 10:10:48;;;;;;;11.93;3.22;;;;;;;18.53;42.82;102656.56;5287989;28;20386;-69
2023/05/17 10:13:23;;;;;;;9.48;2.30;;;;;;;18.73;40.70;102659.25;5288525;28;20379;-70
2023/05/17 10:15:55;;;;;;;7.05;2.15;;;;;;;18.59;42.78;102652.50;5290691;28;21032;-70
2023/05/17 10:18:28;;;;;;;6.82;2.00;;;;;;;18.63;40.84;102659.19;5293116;28;20576;-69
2023/05/17 10:21:00;;;;;;;7.28;2.30;;;;;;;18.72;41.44;102655.75;5293828;28;20020;-69
2023/05/17 10:23:32;;;;;;;9.80;2.33;;;;;;;18.62;40.93;102654.88;5277424;28;20051;-69
2023/05/17 10:26:04;;;;;;;8.77;1.97;;;;;;;18.80;42.33;102665.69;5292794;28;20062;-70
2023/05/17 10:28:36;;;;;;;9.50;2.30;;;;;;;18.68;41.66;102647.22;5293303;28;20035;-70
2023/05/17 10:31:07;;;;;;;8.32;1.92;;;;;;;18.59;39.74;102658.63;5292835;28;20036;-69
2023/05/17 10:33:39;;;;;;;9.90;2.72;;;;;;;18.51;41.64;102660.31;5275002;28;20032;-70
2023/05/17 10:36:16;;;;;;;7.63;2.27;;;;;;;18.41;40.80;102660.28;5289942;28;20062;-70
2023/05/17 10:38:47;;;;;;;6.18;1.63;;;;;;;18.58;40.08;102654.31;5293433;27;20111;-70
2023/05/17 10:41:22;;;;;;;8.32;1.88;;;;;;;18.61;41.25;102654.03;5294488;28;20039;-69
2023/05/17 10:43:54;;;;;;;6.45;1.70;;;;;;;18.65;37.88;102646.66;5293452;28;20218;-69
2023/05/17 10:46:28;;;;;;;6.43;2.15;;;;;;;18.78;38.62;102638.41;5287238;28;20036;-70
2023/05/17 10:49:00;;;;;;;10.75;2.72;;;;;;;18.75;38.62;102639.53;5289309;28;20028;-69
2023/05/17 10:51:34;;;;;;;9.55;2.15;;;;;;;19.06;40.28;102636.75;5294603;28;20085;-70
2023/05/17 10:54:10;;;;;;;9.50;2.17;;;;;;;19.30;39.48;102644.22;5292544;28;20031;-70
2023/05/17 10:56:47;;;;;;;6.07;2.20;;;;;;;19.37;39.58;102640.03;5290322;28;20535;-70
2023/05/17 10:59:25;;;;;;;10.77;2.05;;;;;;;19.40;39.05;102634.41;5294442;28;20025;-70
2023/05/17 11:02:07;;;;;;;3.97;1.58;;;;;;;19.53;37.52;102640.25;5289248;28;20089;-69
2023/05/17 11:04:40;;;;;;;5.95;1.80;;;;;;;19.33;34.19;102628.84;5291364;28;20059;-69
2023/05/17 11:07:15;;;;;;;;;;;;;;;20.37;36.64;102631.28;5291458;28;20063;-69
2023/05/17 11:09:54;;;;;;;6.32;1.60;;;;;;;19.63;35.31;102635.78;5288798;28;19916;-70
2023/05/17 11:12:34;;;;;;;5.68;1.60;;;;;;;19.48;37.25;102629.22;5292733;28;20032;-70
2023/05/17 11:15:07;;;;;;;7.63;1.80;;;;;;;19.49;35.07;102619.41;5292522;28;20103;-69
2023/05/17 11:17:41;;;;;;;7.90;2.00;;;;;;;19.71;38.40;102631.53;5298336;28;20093;-69
2023/05/17 11:20:13;;;;;;;5.07;1.55;;;;;;;19.38;32.93;102636.38;5298370;28;20076;-69
2023/05/17 11:23:14;;;;;;;8.52;1.98;;;;;;;19.99;34.60;102635.88;5297549;28;20040;-69
2023/05/17 11:25:47;;;;;;;7.20;1.67;;;;;;;19.62;35.50;102646.53;5297271;28;20059;-69
2023/05/17 11:28:20;;;;;;;8.70;1.65;;;;;;;19.38;34.88;102628.41;5281365;28;20031;-70
2023/05/17 11:30:59;;;;;;;5.65;1.48;;;;;;;19.90;35.94;102623.47;5295961;28;20473;-70
2023/05/17 11:33:44;;;;;;;5.60;1.50;;;;;;;20.04;35.78;102625.63;5299180;28;20031;-70
2023/05/17 11:36:20;;;;;;;8.57;1.88;;;;;;;20.03;36.34;102629.25;5295747;28;20892;-69
2023/05/17 11:39:12;;;;;;;6.43;2.03;;;;;;;20.20;34.42;102632.13;5295189;28;20047;-70
2023/05/17 11:42:02;;;;;;;5.70;1.77;;;;;;;20.27;35.59;102625.22;5298314;28;20084;-70
2023/05/17 11:44:33;;;;;;;6.22;1.52;;;;;;;19.89;35.66;102617.31;5296092;28;20040;-70